createdAt,value
2019-03-20T00:00:16.291Z,12.20
2019-03-20T00:05:20.280Z,18.07
2019-03-20T00:10:24.255Z,32.00
2019-03-20T00:15:28.234Z,7.87
2019-03-20T00:20:32.274Z,14.73
2019-03-20T00:25:36.230Z,12.33
2019-03-20T00:30:40.194Z,22.57
2019-03-20T00:35:44.216Z,4.40
2019-03-20T00:40:48.189Z,25.23
2019-03-20T00:45:52.119Z,16.17
2019-03-20T00:50:56.084Z,1.47
2019-03-20T00:56:00.096Z,0.40
2019-03-20T01:01:04.022Z,5.70
2019-03-20T01:06:07.994Z,5.47
2019-03-20T01:11:11.990Z,2.30
2019-03-20T01:16:15.940Z,4.67
2019-03-20T01:21:19.939Z,4.83
2019-03-20T01:26:23.881Z,6.47
2019-03-20T01:31:27.931Z,2.53
2019-03-20T01:36:31.854Z,0.90
2019-03-20T01:41:38.159Z,4.77
2019-03-20T01:46:41.391Z,6.67
2019-03-20T01:51:45.326Z,12.00
2019-03-20T01:56:50.327Z,34.47
2019-03-20T02:01:54.304Z,14.10
2019-03-20T02:06:58.239Z,0.30
2019-03-20T02:12:02.259Z,1.80
2019-03-20T02:17:06.244Z,1.50
2019-03-20T02:22:10.164Z,0.50
2019-03-20T02:27:14.129Z,0.00
2019-03-20T02:32:18.247Z,0.20
2019-03-20T02:37:22.217Z,1.80
2019-03-20T02:42:26.190Z,1.60
2019-03-20T02:47:30.127Z,1.40
2019-03-20T02:52:34.091Z,2.60
2019-03-20T02:57:38.033Z,6.07
2019-03-20T03:02:41.986Z,14.17
2019-03-20T03:07:46.055Z,12.67
2019-03-20T03:12:49.960Z,13.50
2019-03-20T03:17:53.915Z,35.67
2019-03-20T03:22:57.832Z,50.77
2019-03-20T03:28:01.806Z,33.20
2019-03-20T03:33:05.765Z,9.90
2019-03-20T03:38:09.780Z,6.83
2019-03-20T03:43:13.681Z,8.47
2019-03-20T03:48:17.629Z,4.77
2019-03-20T03:53:21.544Z,3.07
2019-03-20T03:58:25.555Z,6.43
2019-03-20T04:03:29.602Z,9.43
2019-03-20T04:08:33.565Z,2.80
2019-03-20T04:13:37.541Z,2.97
2019-03-20T04:18:41.487Z,2.27
2019-03-20T04:23:45.426Z,2.67
2019-03-20T04:28:49.385Z,5.40
2019-03-20T04:33:53.353Z,1.33
2019-03-20T04:38:57.284Z,13.77
2019-03-20T04:44:01.187Z,21.70
2019-03-20T04:49:05.115Z,20.37
2019-03-20T04:54:09.010Z,5.25
2019-03-20T04:59:13.000Z,0.60
2019-03-20T05:04:16.990Z,2.87
2019-03-20T05:09:20.862Z,1.60
2019-03-20T05:14:24.889Z,1.07
2019-03-20T05:19:28.870Z,0.10
2019-03-20T05:24:32.836Z,6.63
2019-03-20T05:29:36.782Z,58.70
2019-03-20T05:34:40.694Z,88.80
2019-03-20T05:39:44.599Z,11.60
2019-03-20T05:44:48.566Z,5.27
2019-03-20T05:49:52.490Z,72.33
2019-03-20T05:54:56.460Z,75.87
2019-03-20T06:00:00.537Z,86.07
2019-03-20T06:05:04.858Z,121.80
2019-03-20T06:10:10.465Z,114.23
2019-03-20T06:15:14.672Z,95.90
2019-03-20T06:20:18.590Z,34.23
2019-03-20T06:25:22.507Z,8.23
2019-03-20T06:30:26.410Z,65.07
2019-03-20T06:35:30.391Z,8.47
2019-03-20T06:40:34.264Z,3.10
2019-03-20T06:45:38.265Z,11.00
2019-03-20T06:50:42.211Z,3.77
2019-03-20T06:55:46.140Z,2.50
2019-03-20T07:00:56.706Z,6.10
2019-03-20T07:06:22.329Z,25.27
2019-03-20T07:11:24.463Z,19.13
2019-03-20T07:16:28.384Z,6.87
2019-03-20T07:21:33.361Z,10.13
2019-03-20T07:26:37.301Z,10.00
2019-03-20T07:31:41.305Z,4.20
2019-03-20T07:36:45.335Z,5.00
2019-03-20T07:41:49.307Z,3.47
2019-03-20T07:46:53.203Z,19.53
2019-03-20T07:51:57.286Z,13.70
2019-03-20T07:57:01.250Z,5.17
2019-03-20T08:02:06.066Z,8.00
2019-03-20T08:07:11.980Z,29.10
2019-03-20T08:12:15.969Z,10.57
2019-03-20T08:17:22.656Z,62.57
2019-03-20T08:22:26.649Z,64.50
2019-03-20T08:27:30.590Z,7.07
2019-03-20T08:32:37.749Z,2.13
2019-03-20T08:37:41.784Z,6.87
2019-03-20T08:42:45.734Z,6.83
2019-03-20T08:47:49.754Z,12.67
2019-03-20T08:52:53.655Z,0.03
2019-03-20T08:57:57.657Z,1.62
2019-03-20T09:03:02.580Z,0.73
2019-03-20T09:08:06.594Z,21.23
2019-03-20T09:13:10.595Z,18.17
2019-03-20T09:18:14.595Z,23.10
2019-03-20T09:23:18.534Z,68.92
2019-03-20T09:28:22.450Z,119.07
2019-03-20T09:33:26.407Z,178.68
2019-03-20T09:38:30.409Z,239.87
2019-03-20T09:43:34.400Z,187.80
2019-03-20T09:48:38.402Z,7.50
2019-03-20T09:53:42.438Z,9.23
2019-03-20T09:58:46.512Z,119.53
2019-03-20T10:03:50.611Z,114.03
2019-03-20T10:08:54.717Z,0.97
2019-03-20T10:13:58.690Z,0.63
2019-03-20T10:19:02.710Z,0.60
2019-03-20T10:24:06.725Z,25.67
2019-03-20T10:29:10.761Z,0.50
2019-03-20T10:34:14.809Z,1.50
2019-03-20T10:39:18.753Z,1.83
2019-03-20T10:44:22.721Z,1.30
2019-03-20T10:49:26.780Z,3.20
2019-03-20T10:54:30.811Z,7.37
2019-03-20T10:59:34.775Z,7.77
2019-03-20T11:04:38.845Z,2.53
2019-03-20T11:09:42.919Z,3.50
2019-03-20T11:14:49.823Z,5.60
2019-03-20T11:19:56.210Z,7.40
2019-03-20T11:24:59.420Z,2.10
2019-03-20T11:30:04.451Z,0.77
2019-03-20T11:35:08.400Z,0.30
2019-03-20T11:40:16.226Z,0.40
2019-03-20T11:45:20.225Z,0.63
2019-03-20T11:50:26.856Z,0.97
2019-03-20T11:55:30.896Z,0.73
2019-03-20T12:00:34.996Z,0.20
2019-03-20T12:05:39.054Z,0.40
2019-03-20T12:10:45.057Z,0.20
2019-03-20T12:15:49.061Z,0.70
2019-03-20T12:20:53.130Z,0.07
2019-03-20T12:25:57.237Z,0.53
2019-03-20T12:31:01.206Z,0.00
2019-03-20T12:36:05.417Z,0.93
2019-03-20T12:41:09.637Z,1.93
2019-03-20T12:46:13.952Z,0.50
2019-03-20T12:51:17.981Z,0.10
2019-03-20T12:56:23.593Z,0.00
2019-03-20T13:01:27.715Z,1.13
2019-03-20T13:06:33.159Z,0.27
2019-03-20T13:11:37.156Z,0.10
2019-03-20T13:16:41.229Z,0.20
2019-03-20T13:21:48.475Z,0.10
2019-03-20T13:26:52.496Z,0.00
2019-03-20T13:31:56.475Z,0.20
2019-03-20T13:37:00.669Z,0.50
2019-03-20T13:42:04.875Z,0.40
2019-03-20T13:47:08.895Z,1.23
2019-03-20T13:52:12.981Z,0.23
2019-03-20T13:57:16.974Z,0.93
2019-03-20T14:02:20.968Z,2.43
2019-03-20T14:07:25.014Z,3.13
2019-03-20T14:12:28.978Z,1.43
2019-03-20T14:17:32.923Z,0.30
2019-03-20T14:22:36.914Z,1.00
2019-03-20T14:27:40.927Z,1.40
2019-03-20T14:32:45.038Z,3.13
2019-03-20T14:37:49.083Z,6.10
2019-03-20T14:42:53.138Z,4.50
2019-03-20T14:47:57.100Z,5.37
2019-03-20T14:53:01.170Z,8.30
2019-03-20T14:58:05.242Z,5.20
2019-03-20T15:03:10.606Z,7.10
2019-03-20T15:08:14.679Z,5.73
2019-03-20T15:13:18.862Z,6.27
2019-03-20T15:18:24.227Z,7.13
2019-03-20T15:23:28.118Z,3.93
2019-03-20T15:28:34.563Z,2.40
2019-03-20T15:33:38.546Z,3.50
2019-03-20T15:38:42.510Z,2.17
2019-03-20T15:43:46.485Z,2.37
2019-03-20T15:48:50.481Z,2.57
2019-03-20T15:53:54.513Z,5.97
2019-03-20T15:58:58.563Z,2.90
2019-03-20T16:04:03.413Z,2.93
2019-03-20T16:09:08.711Z,2.60
2019-03-20T16:14:12.693Z,2.80
2019-03-20T16:19:16.885Z,2.80
2019-03-20T16:24:20.908Z,3.13
2019-03-20T16:29:24.848Z,5.28
2019-03-20T16:34:28.938Z,3.13
2019-03-20T16:39:32.993Z,3.17
2019-03-20T16:44:36.937Z,1.33
2019-03-20T16:49:40.907Z,1.83
2019-03-20T16:54:44.857Z,1.50
2019-03-20T16:59:50.047Z,1.97
2019-03-20T17:04:54.089Z,0.20
2019-03-20T17:10:00.674Z,0.30
2019-03-20T17:15:07.667Z,0.30
2019-03-20T17:20:12.918Z,0.80
2019-03-20T17:25:16.917Z,1.77
2019-03-20T17:30:24.238Z,2.40
2019-03-20T17:35:28.347Z,3.17
2019-03-20T17:40:32.313Z,3.07
2019-03-20T17:45:36.589Z,3.03
2019-03-20T17:50:42.840Z,2.67
2019-03-20T17:55:47.733Z,3.90
2019-03-20T18:00:51.734Z,4.20
2019-03-20T18:05:55.708Z,3.90
2019-03-20T18:10:59.930Z,3.40
2019-03-20T18:16:04.354Z,3.53
2019-03-20T18:21:08.646Z,4.67
2019-03-20T18:26:12.754Z,4.60
2019-03-20T18:31:16.799Z,3.60
2019-03-20T18:36:21.094Z,4.73
2019-03-20T18:41:25.166Z,7.70
2019-03-20T18:46:29.518Z,6.77
2019-03-20T18:51:35.719Z,5.20
2019-03-20T18:56:39.791Z,2.20
2019-03-20T19:01:43.939Z,3.23
2019-03-20T19:06:48.006Z,2.47
2019-03-20T19:11:52.158Z,2.80
2019-03-20T19:16:56.173Z,2.53
2019-03-20T19:22:00.213Z,3.30
2019-03-20T19:27:04.580Z,3.90
2019-03-20T19:32:08.706Z,3.77
2019-03-20T19:37:12.813Z,4.80
2019-03-20T19:42:20.189Z,7.90
2019-03-20T19:47:22.663Z,4.93
2019-03-20T19:52:26.622Z,4.07
2019-03-20T19:57:30.861Z,3.47
2019-03-20T20:02:34.895Z,4.53
2019-03-20T20:07:38.966Z,4.97
2019-03-20T20:12:43.040Z,7.47
2019-03-20T20:17:47.259Z,4.40
2019-03-20T20:22:51.303Z,45.30
2019-03-20T20:27:55.279Z,11.00
2019-03-20T20:32:59.524Z,9.03
2019-03-20T20:38:03.564Z,5.20
2019-03-20T20:43:09.620Z,9.20
2019-03-20T20:48:13.660Z,8.13
2019-03-20T20:53:17.680Z,7.23
2019-03-20T20:58:21.854Z,4.63
2019-03-20T21:03:25.880Z,6.00
2019-03-20T21:08:29.926Z,6.03
2019-03-20T21:13:34.079Z,14.97
2019-03-20T21:19:10.000Z,6.07
2019-03-20T21:24:22.181Z,6.13
2019-03-20T21:29:48.580Z,7.37
2019-03-20T21:35:09.979Z,7.60
2019-03-20T21:40:16.238Z,11.17
2019-03-20T21:45:37.621Z,9.27
2019-03-20T21:51:07.340Z,9.70
2019-03-20T21:56:27.564Z,9.08
2019-03-20T22:01:46.187Z,7.60
2019-03-20T22:07:04.957Z,9.63
2019-03-20T22:12:19.870Z,16.23
2019-03-20T22:17:51.221Z,114.93
2019-03-20T22:23:09.566Z,245.43
2019-03-20T22:28:41.051Z,111.50
2019-03-20T22:34:03.003Z,43.23
2019-03-20T22:39:35.055Z,69.57
2019-03-20T22:44:50.967Z,306.37
2019-03-20T22:50:14.641Z,368.53
2019-03-20T22:55:31.481Z,268.20
2019-03-20T23:00:36.146Z,446.17
2019-03-20T23:05:40.740Z,456.33
2019-03-20T23:10:47.290Z,140.23
2019-03-20T23:15:52.321Z,378.07
2019-03-20T23:20:56.756Z,135.97
2019-03-20T23:26:01.254Z,198.00
2019-03-20T23:31:05.821Z,213.50
2019-03-20T23:36:10.627Z,448.73
2019-03-20T23:41:15.165Z,445.37
2019-03-20T23:46:19.680Z,456.60
2019-03-20T23:51:24.728Z,422.63
2019-03-20T23:56:31.147Z,324.83
